Time;durP1;ratioP1;P1;durP2;ratioP2;P2;SDS_P1;SDS_P2;PMS_P1;PMS_P2;Temp;Humidity;BMP_temperature;BMP_pressure;BME280_temperature;BME280_humidity;BME280_pressure;Samples;Min_cycle;Max_cycle;Signal;HPM_P1;HPM_P2
2021/03/12 00:00:38;;;;;;;31.70;15.27;;;;;;;-2.01;96.39;96117.78;5091590;28;20236;-63
2021/03/12 00:03:07;;;;;;;31.57;15.33;;;;;;;-1.95;96.13;96111.09;5091399;28;20234;-61
2021/03/12 00:05:39;;;;;;;29.17;15.33;;;;;;;-2.01;96.90;96102.50;5091402;28;20282;-61
2021/03/12 00:08:07;;;;;;;23.90;13.13;;;;;;;-2.04;96.73;96107.97;5091499;28;20272;-61
2021/03/12 00:10:34;;;;;;;33.00;17.27;;;;;;;-2.01;97.50;96102.50;5091302;28;20322;-61
2021/03/12 00:13:00;;;;;;;29.57;14.20;;;;;;;-1.86;96.74;96112.44;5091525;28;20190;-61
2021/03/12 00:15:28;;;;;;;31.43;16.10;;;;;;;-1.94;96.36;96112.66;5091289;28;20205;-61
2021/03/12 00:17:57;;;;;;;35.60;15.43;;;;;;;-2.11;97.42;96101.34;5091209;28;20287;-61
2021/03/12 00:20:25;;;;;;;36.33;15.17;;;;;;;-2.06;97.78;96099.75;5091066;28;20241;-59
2021/03/12 00:22:53;;;;;;;26.03;13.93;;;;;;;-2.05;97.56;96095.44;5091175;28;20194;-61
2021/03/12 00:25:26;;;;;;;25.97;14.63;;;;;;;-2.00;97.78;96088.78;5090986;28;20767;-61
2021/03/12 00:27:53;;;;;;;26.70;13.93;;;;;;;-2.07;97.72;96088.00;5091412;28;20777;-61
2021/03/12 00:30:21;;;;;;;24.20;12.70;;;;;;;-2.16;98.40;96079.03;5091120;28;20324;-60
2021/03/12 00:32:48;;;;;;;23.30;13.33;;;;;;;-2.15;98.14;96080.59;5091236;28;20230;-60
2021/03/12 00:35:15;;;;;;;26.93;14.77;;;;;;;-2.07;98.29;96075.28;5090767;28;20199;-61
2021/03/12 00:37:45;;;;;;;29.33;15.77;;;;;;;-2.03;98.20;96081.53;5090825;28;20639;-61
2021/03/12 00:40:15;;;;;;;29.30;14.97;;;;;;;-2.04;97.87;96072.31;5090864;28;20693;-61
2021/03/12 00:42:44;;;;;;;27.23;14.40;;;;;;;-2.09;97.67;96069.59;5091055;28;20206;-61
2021/03/12 00:45:14;;;;;;;27.77;15.17;;;;;;;-2.08;97.47;96063.53;5090803;28;20914;-61
2021/03/12 00:47:41;;;;;;;21.83;13.43;;;;;;;-2.14;96.94;96051.59;5090733;28;20190;-61
2021/03/12 00:50:10;;;;;;;24.40;13.63;;;;;;;-2.14;97.53;96061.00;5090635;28;20674;-61
2021/03/12 00:52:37;;;;;;;24.57;13.77;;;;;;;-2.15;97.69;96050.03;5090623;28;20232;-62
2021/03/12 00:55:06;;;;;;;23.07;12.87;;;;;;;-2.05;98.06;96064.91;5090534;28;20286;-61
2021/03/12 00:57:33;;;;;;;22.43;13.23;;;;;;;-1.99;97.55;96069.97;5090463;28;20285;-60
2021/03/12 01:00:01;;;;;;;22.70;11.90;;;;;;;-1.90;97.27;96068.00;5090538;28;20278;-61
2021/03/12 01:02:28;;;;;;;22.33;12.57;;;;;;;-1.85;97.58;96058.00;5090106;28;20761;-60
2021/03/12 01:04:55;;;;;;;24.60;12.93;;;;;;;-1.81;97.31;96059.94;5090742;28;20227;-60
2021/03/12 01:07:22;;;;;;;20.73;13.23;;;;;;;-1.72;97.17;96045.19;5090232;28;20636;-58
2021/03/12 01:09:49;;;;;;;22.50;13.40;;;;;;;-1.67;96.17;96047.13;5090477;28;20198;-61
2021/03/12 01:12:16;;;;;;;22.90;13.33;;;;;;;-1.74;96.51;96042.84;5090301;28;20672;-60
2021/03/12 01:14:43;;;;;;;28.83;14.60;;;;;;;-1.67;96.50;96031.84;5090108;28;20194;-61
2021/03/12 01:17:10;;;;;;;25.30;14.07;;;;;;;-1.64;97.34;96027.13;5090146;28;20274;-61
2021/03/12 01:19:37;;;;;;;32.33;15.77;;;;;;;-1.64;96.65;96021.25;5090300;28;20249;-60
2021/03/12 01:22:04;;;;;;;30.13;17.00;;;;;;;-1.71;96.58;96020.50;5090327;28;20282;-61
2021/03/12 01:24:31;;;;;;;38.47;18.93;;;;;;;-1.80;96.86;96013.09;5090090;28;20196;-62
2021/03/12 01:26:59;;;;;;;36.40;19.47;;;;;;;-1.83;97.92;96028.78;5090151;28;20216;-61
2021/03/12 01:29:26;;;;;;;32.23;17.27;;;;;;;-1.83;98.05;96022.91;5090093;28;20739;-60
2021/03/12 01:31:53;;;;;;;47.40;24.40;;;;;;;-1.78;97.22;96030.72;5090125;28;20314;-61
2021/03/12 01:34:20;;;;;;;56.77;28.63;;;;;;;-1.66;97.75;96024.00;5090031;28;20234;-60
2021/03/12 01:36:47;;;;;;;63.70;31.80;;;;;;;-1.90;98.21;96030.59;5090052;28;20271;-61
2021/03/12 01:39:14;;;;;;;68.43;32.10;;;;;;;-1.93;99.53;96028.41;5090018;28;20286;-59
2021/03/12 01:41:41;;;;;;;58.73;31.33;;;;;;;-1.92;99.22;96024.91;5090009;28;20227;-60
2021/03/12 01:44:09;;;;;;;64.23;31.70;;;;;;;-1.87;99.35;96017.44;5089804;28;20195;-60
2021/03/12 01:46:36;;;;;;;64.23;32.73;;;;;;;-1.83;99.72;96028.78;5090272;28;20202;-61
2021/03/12 01:49:03;;;;;;;70.57;33.90;;;;;;;-1.78;100.00;96031.50;5090770;28;20238;-61
2021/03/12 01:51:32;;;;;;;65.17;32.57;;;;;;;-1.79;99.71;96036.78;5094084;28;20230;-60
2021/03/12 01:53:59;;;;;;;68.53;34.00;;;;;;;-1.77;100.00;96040.69;5094066;28;20227;-61
2021/03/12 01:56:26;;;;;;;70.37;32.10;;;;;;;-1.71;100.00;96035.78;5093988;28;20414;-61
2021/03/12 01:58:54;;;;;;;85.03;34.83;;;;;;;-1.68;100.00;96028.50;5093807;28;20289;-60
2021/03/12 02:01:21;;;;;;;67.83;32.03;;;;;;;-1.64;100.00;96044.19;5094166;28;20667;-60
2021/03/12 02:03:48;;;;;;;74.27;32.50;;;;;;;-1.64;99.78;96031.47;5093866;28;20223;-60
2021/03/12 02:06:15;;;;;;;79.47;33.47;;;;;;;-1.54;99.53;96022.34;5093896;28;20282;-60
2021/03/12 02:08:42;;;;;;;82.13;34.20;;;;;;;-1.57;99.19;96006.72;5093785;28;20306;-60
2021/03/12 02:11:09;;;;;;;74.13;34.83;;;;;;;-1.55;98.47;95989.47;5093623;28;20262;-61
2021/03/12 02:13:44;;;;;;;70.10;32.40;;;;;;;-1.60;98.02;95981.66;5093743;28;20652;-61
2021/03/12 02:16:15;;;;;;;71.60;34.50;;;;;;;-1.57;99.03;95971.03;5094093;28;20252;-62
2021/03/12 02:18:51;;;;;;;66.40;34.90;;;;;;;-1.58;98.34;95975.34;5093676;28;20710;-62
2021/03/12 02:21:25;;;;;;;72.73;34.17;;;;;;;-1.63;98.62;95987.13;5093405;28;20639;-61
2021/03/12 02:24:08;;;;;;;72.70;32.53;;;;;;;-1.63;99.01;95982.81;5093570;28;20203;-61
2021/03/12 02:27:04;;;;;;;60.73;31.10;;;;;;;-1.58;99.22;95982.22;5093356;28;20283;-61
2021/03/12 02:29:33;;;;;;;64.23;30.63;;;;;;;-1.61;98.79;95969.91;5088921;28;20286;-61
2021/03/12 02:32:02;;;;;;;60.43;29.77;;;;;;;-1.62;99.29;95960.69;5093143;28;20242;-63
2021/03/12 02:34:35;;;;;;;58.47;29.30;;;;;;;-1.67;98.79;95951.09;5093436;28;20279;-62
2021/03/12 02:37:03;;;;;;;56.77;29.17;;;;;;;-1.67;99.08;95963.84;5093518;28;20692;-61
2021/03/12 02:39:32;;;;;;;52.93;27.93;;;;;;;-1.70;98.69;95973.66;5093160;28;20278;-61
2021/03/12 02:42:01;;;;;;;79.70;35.47;;;;;;;-1.84;98.96;95972.94;5093219;28;20282;-61
2021/03/12 02:44:31;;;;;;;96.57;38.70;;;;;;;-1.91;99.27;95970.44;5092959;28;20278;-61
2021/03/12 02:47:02;;;;;;;92.57;38.07;;;;;;;-1.84;98.37;95968.63;5093236;28;20251;-62
2021/03/12 02:49:30;;;;;;;84.17;36.00;;;;;;;-1.76;99.00;95970.16;5092990;28;20294;-61
2021/03/12 02:51:57;;;;;;;71.43;33.97;;;;;;;-1.73;98.61;95968.00;5092773;28;20231;-61
2021/03/12 02:54:24;;;;;;;93.80;38.57;;;;;;;-1.70;98.52;95961.72;5092772;28;20237;-61
2021/03/12 02:56:52;;;;;;;101.70;42.93;;;;;;;-1.73;99.12;95978.19;5092687;28;20192;-61
2021/03/12 02:59:20;;;;;;;116.47;47.00;;;;;;;-1.79;99.19;95976.44;5092748;28;20691;-60
2021/03/12 03:01:51;;;;;;;77.43;36.80;;;;;;;-1.78;99.31;95974.69;5092490;28;20294;-60
2021/03/12 03:04:20;;;;;;;63.33;31.47;;;;;;;-1.81;98.70;95963.16;5092874;28;20230;-61
2021/03/12 03:06:48;;;;;;;76.13;32.37;;;;;;;-1.74;98.48;95956.22;5092810;28;20279;-61
2021/03/12 03:09:17;;;;;;;69.80;31.80;;;;;;;-1.68;98.82;95941.13;5092502;28;20194;-60
2021/03/12 03:11:45;;;;;;;75.47;35.83;;;;;;;-1.70;98.59;95938.00;5092384;28;20238;-60
2021/03/12 03:14:15;;;;;;;76.63;36.93;;;;;;;-1.75;99.10;95943.72;5092612;28;20249;-60
2021/03/12 03:16:45;;;;;;;77.60;36.30;;;;;;;-1.65;99.93;95943.28;5092482;28;20244;-60
2021/03/12 03:19:14;;;;;;;76.50;34.97;;;;;;;-1.64;99.38;95935.41;5092692;28;20261;-61
2021/03/12 03:21:42;;;;;;;59.67;31.23;;;;;;;-1.59;99.47;95932.22;5092222;28;20239;-60
2021/03/12 03:24:10;;;;;;;57.37;28.83;;;;;;;-1.63;98.90;95926.00;5092241;28;20203;-61
2021/03/12 03:26:38;;;;;;;55.37;28.33;;;;;;;-1.63;99.14;95926.00;5092175;28;20250;-60
2021/03/12 03:29:06;;;;;;;53.53;28.47;;;;;;;-1.65;98.93;95921.13;5092480;28;20231;-60
2021/03/12 03:31:34;;;;;;;53.63;29.03;;;;;;;-1.66;98.44;95927.19;5092110;28;20314;-60
2021/03/12 03:34:02;;;;;;;53.87;28.10;;;;;;;-1.66;98.34;95926.41;5092313;28;20195;-60
2021/03/12 03:36:29;;;;;;;44.27;24.43;;;;;;;-1.74;98.45;95938.41;5091938;28;20191;-61
2021/03/12 03:38:57;;;;;;;49.77;24.67;;;;;;;-1.78;98.22;95937.25;5092581;28;20626;-61
2021/03/12 03:41:25;;;;;;;56.17;27.30;;;;;;;-1.77;98.87;95945.69;5092320;28;20201;-60
2021/03/12 03:43:54;;;;;;;55.37;27.03;;;;;;;-1.60;98.86;95933.25;5091917;28;20191;-58
2021/03/12 03:46:23;;;;;;;60.97;29.50;;;;;;;-1.57;97.89;95930.28;5091836;28;20219;-61
2021/03/12 03:48:51;;;;;;;55.00;28.87;;;;;;;-1.57;97.43;95925.19;5091715;28;20286;-60
2021/03/12 03:51:19;;;;;;;63.33;31.03;;;;;;;-1.55;97.26;95929.09;5091783;28;20266;-61
2021/03/12 03:53:48;;;;;;;63.93;33.47;;;;;;;-1.54;97.20;95940.03;5092192;28;20669;-61
2021/03/12 03:56:17;;;;;;;55.47;31.03;;;;;;;-1.47;97.16;95943.34;5091622;28;20285;-60
2021/03/12 03:58:45;;;;;;;48.87;27.33;;;;;;;-1.49;97.44;95942.75;5091616;28;20741;-61
2021/03/12 04:01:15;;;;;;;44.50;25.17;;;;;;;-1.42;97.04;95933.31;5091683;28;20287;-59
2021/03/12 04:03:42;;;;;;;46.90;25.93;;;;;;;-1.46;97.08;95932.16;5091220;28;20228;-61
2021/03/12 04:06:11;;;;;;;55.53;29.80;;;;;;;-1.60;96.75;95925.59;5091518;28;20188;-62
2021/03/12 04:08:38;;;;;;;55.43;28.90;;;;;;;-1.65;97.20;95918.56;5091844;28;20195;-62
2021/03/12 04:11:07;;;;;;;56.60;29.07;;;;;;;-1.62;96.93;95925.03;5091360;28;20232;-61
2021/03/12 04:13:35;;;;;;;52.00;27.30;;;;;;;-1.59;96.66;95927.13;5090742;28;20222;-61
2021/03/12 04:16:02;;;;;;;50.77;26.70;;;;;;;-1.66;97.12;95932.31;5091241;28;20282;-63
2021/03/12 04:18:30;;;;;;;55.77;27.80;;;;;;;-1.73;97.34;95934.88;5091671;28;20203;-62
2021/03/12 04:20:59;;;;;;;39.23;23.67;;;;;;;-1.72;97.58;95930.56;5091393;28;20203;-60
2021/03/12 04:23:27;;;;;;;39.87;24.53;;;;;;;-1.64;98.05;95930.31;5091647;28;20248;-61
2021/03/12 04:25:54;;;;;;;41.97;23.67;;;;;;;-1.57;97.19;95927.72;5091398;28;20200;-61
2021/03/12 04:28:22;;;;;;;41.53;24.53;;;;;;;-1.48;98.01;95911.97;5091067;28;20198;-60
2021/03/12 04:30:49;;;;;;;41.30;23.27;;;;;;;-1.51;97.79;95911.63;5090742;28;20319;-60
2021/03/12 04:33:17;;;;;;;40.33;23.37;;;;;;;-1.57;97.41;95910.69;5090908;28;20672;-61
2021/03/12 04:35:44;;;;;;;58.80;35.23;;;;;;;-1.51;97.78;95925.16;5090819;28;20228;-60
2021/03/12 04:38:12;;;;;;;50.10;29.90;;;;;;;-1.44;97.78;95920.75;5090991;28;20636;-60
2021/03/12 04:40:40;;;;;;;54.90;33.43;;;;;;;-1.38;97.10;95919.16;5091528;28;20211;-60
2021/03/12 04:43:08;;;;;;;59.63;32.87;;;;;;;-1.33;97.17;95924.41;5090693;28;20232;-60
2021/03/12 04:45:37;;;;;;;52.77;30.83;;;;;;;-1.34;97.02;95935.59;5090983;28;20283;-60
2021/03/12 04:48:05;;;;;;;54.40;29.77;;;;;;;-1.32;97.52;95931.06;5090914;28;20572;-60
2021/03/12 04:50:32;;;;;;;47.87;28.67;;;;;;;-1.30;97.29;95934.22;5090673;28;20278;-60
2021/03/12 04:52:59;;;;;;;46.27;28.53;;;;;;;-1.31;97.76;95943.63;5090700;28;20238;-61
2021/03/12 04:55:26;;;;;;;50.50;27.87;;;;;;;-1.26;97.68;95939.66;5090742;28;20640;-60
2021/03/12 04:57:54;;;;;;;50.97;28.77;;;;;;;-1.22;96.95;95935.72;5090459;28;20756;-60
2021/03/12 05:00:21;;;;;;;45.23;25.83;;;;;;;-1.17;97.23;95915.47;5090464;28;20199;-60
2021/03/12 05:02:50;;;;;;;47.57;25.03;;;;;;;-1.07;96.07;95915.78;5090122;28;20632;-61
2021/03/12 05:05:18;;;;;;;64.43;30.20;;;;;;;-1.10;95.83;95924.63;5090409;28;20196;-61
2021/03/12 05:07:46;;;;;;;80.97;35.57;;;;;;;-1.09;95.78;95913.41;5090317;28;20231;-61
2021/03/12 05:10:13;;;;;;;76.77;32.67;;;;;;;-1.07;95.45;95908.91;5090215;28;20273;-60
2021/03/12 05:12:40;;;;;;;80.90;33.70;;;;;;;-0.99;95.67;95900.97;5090112;28;20329;-61
2021/03/12 05:15:08;;;;;;;75.97;34.83;;;;;;;-0.97;95.62;95906.66;5090145;28;20689;-61
2021/03/12 05:17:35;;;;;;;70.60;32.70;;;;;;;-0.96;95.09;95917.63;5090072;28;20192;-61
2021/03/12 05:20:04;;;;;;;53.47;30.43;;;;;;;-0.92;95.57;95914.44;5090087;28;20332;-61
2021/03/12 05:22:31;;;;;;;42.60;24.97;;;;;;;-0.94;95.40;95915.63;5089796;28;20648;-60
2021/03/12 05:24:58;;;;;;;45.27;27.57;;;;;;;-0.95;94.99;95929.41;5089022;28;20192;-60
2021/03/12 05:27:26;;;;;;;41.80;25.73;;;;;;;-0.95;95.74;95940.38;5089837;28;20337;-60
2021/03/12 05:29:53;;;;;;;39.83;25.60;;;;;;;-0.76;95.25;95948.06;5089945;28;20188;-61
2021/03/12 05:32:20;;;;;;;43.53;25.40;;;;;;;-0.83;94.90;95937.13;5089559;28;20224;-63
2021/03/12 05:34:47;;;;;;;44.47;25.10;;;;;;;-0.67;94.21;95941.69;5089619;28;20196;-60
2021/03/12 05:37:15;;;;;;;41.07;23.83;;;;;;;-0.60;93.28;95955.19;5089889;28;20235;-61
2021/03/12 05:39:41;;;;;;;39.27;22.97;;;;;;;-0.48;92.44;95966.22;5089593;28;20194;-61
2021/03/12 05:42:09;;;;;;;35.17;20.40;;;;;;;-0.44;91.52;95962.25;5089759;28;20303;-60
2021/03/12 05:44:37;;;;;;;34.63;20.77;;;;;;;-0.38;92.22;95956.31;5089532;28;20214;-61
2021/03/12 05:47:05;;;;;;;32.80;19.40;;;;;;;-0.39;92.50;95956.50;5089532;28;20649;-62
2021/03/12 05:49:37;;;;;;;32.67;20.23;;;;;;;-0.30;93.04;95968.78;5089614;28;20290;-61
2021/03/12 05:52:04;;;;;;;32.60;19.23;;;;;;;-0.15;93.31;95956.44;5089544;28;20223;-61
2021/03/12 05:54:32;;;;;;;31.00;17.73;;;;;;;0.08;92.81;95937.09;5089390;28;20261;-61
2021/03/12 05:56:59;;;;;;;31.20;19.30;;;;;;;0.19;91.25;95934.59;5089426;28;20278;-62
2021/03/12 05:59:27;;;;;;;37.50;18.27;;;;;;;0.35;91.29;95940.84;5089452;28;20287;-60
2021/03/12 06:01:53;;;;;;;32.90;17.50;;;;;;;0.47;91.16;95946.78;5089676;28;20192;-62
2021/03/12 06:04:20;;;;;;;31.20;17.73;;;;;;;0.38;89.99;95955.78;5089820;28;20720;-62
2021/03/12 06:06:48;;;;;;;32.73;19.53;;;;;;;0.59;89.42;95962.97;5089757;28;20206;-62
2021/03/12 06:09:15;;;;;;;66.73;30.97;;;;;;;0.58;89.03;95986.16;5089623;28;20719;-63
2021/03/12 06:11:43;;;;;;;67.37;33.03;;;;;;;0.64;88.22;95986.09;5089483;28;20239;-63
2021/03/12 06:14:12;;;;;;;35.47;19.00;;;;;;;0.72;87.89;95979.88;5089255;28;20194;-62
2021/03/12 06:16:48;;;;;;;45.37;22.37;;;;;;;0.80;87.09;95982.88;5089187;28;20334;-63
2021/03/12 06:19:16;;;;;;;30.53;16.93;;;;;;;0.97;85.19;95979.69;5089153;28;20200;-60
2021/03/12 06:21:44;;;;;;;34.97;19.17;;;;;;;1.17;84.45;95980.16;5089504;28;20582;-59
2021/03/12 06:24:28;;;;;;;32.40;19.10;;;;;;;1.29;84.51;95980.94;5089266;28;20318;-60
2021/03/12 06:26:57;;;;;;;41.17;22.93;;;;;;;1.43;84.50;95979.72;5089261;28;20620;-59
2021/03/12 06:29:35;;;;;;;43.97;25.53;;;;;;;1.44;84.48;95978.72;5089200;28;20192;-60
2021/03/12 06:32:03;;;;;;;45.70;25.47;;;;;;;1.58;83.26;96002.31;5089041;28;20229;-61
2021/03/12 06:34:31;;;;;;;34.97;19.90;;;;;;;1.47;83.79;96006.44;5089317;28;20302;-62
2021/03/12 06:36:59;;;;;;;93.53;39.90;;;;;;;1.34;83.65;96011.00;5092512;28;20243;-62
2021/03/12 06:39:33;;;;;;;62.83;28.73;;;;;;;1.35;84.01;96021.00;5092723;28;20290;-62
2021/03/12 06:42:08;;;;;;;40.17;20.30;;;;;;;1.39;82.81;96027.25;5092889;28;20225;-63
2021/03/12 06:44:36;;;;;;;29.30;16.60;;;;;;;1.46;82.93;96034.81;5092635;28;20217;-59
2021/03/12 06:47:04;;;;;;;67.80;25.90;;;;;;;1.51;83.77;96030.59;5092748;28;20191;-62
2021/03/12 06:49:31;;;;;;;37.73;18.50;;;;;;;1.56;80.93;96030.69;5092470;28;20194;-61
2021/03/12 06:51:59;;;;;;;28.63;15.03;;;;;;;1.72;77.27;96053.09;5092454;28;20229;-60
2021/03/12 06:54:27;;;;;;;18.30;12.90;;;;;;;1.81;80.84;96032.25;5091142;28;20207;-62
2021/03/12 06:56:55;;;;;;;49.83;18.50;;;;;;;1.79;80.41;96039.38;5092513;28;20655;-63
2021/03/12 06:59:30;;;;;;;27.53;14.90;;;;;;;1.96;78.72;96061.53;5092450;28;20732;-61
2021/03/12 07:01:59;;;;;;;20.80;13.33;;;;;;;1.90;78.24;96064.19;5092385;28;20622;-62
2021/03/12 07:04:27;;;;;;;21.83;13.83;;;;;;;1.90;79.56;96053.94;5091926;28;20266;-60
2021/03/12 07:06:56;;;;;;;18.80;11.43;;;;;;;1.85;79.54;96051.28;5092366;28;20205;-62
2021/03/12 07:09:24;;;;;;;21.97;14.03;;;;;;;1.95;80.11;96066.88;5092225;28;20193;-62
2021/03/12 07:11:54;;;;;;;23.70;13.97;;;;;;;2.10;81.16;96060.28;5092122;28;20228;-63
2021/03/12 07:14:21;;;;;;;23.93;14.73;;;;;;;2.26;80.75;96063.16;5092199;28;20200;-63
2021/03/12 07:16:51;;;;;;;23.17;14.07;;;;;;;2.37;79.10;96073.38;5092079;28;20654;-60
2021/03/12 07:19:19;;;;;;;23.67;14.83;;;;;;;2.45;78.21;96074.81;5092377;28;20295;-63
2021/03/12 07:21:50;;;;;;;25.83;15.60;;;;;;;2.49;79.14;96078.50;5091992;28;20278;-61
2021/03/12 07:24:21;;;;;;;27.03;15.80;;;;;;;2.53;79.26;96064.97;5092016;28;20670;-62
2021/03/12 07:26:50;;;;;;;27.47;16.57;;;;;;;2.65;77.19;96054.66;5092201;28;20192;-62
2021/03/12 07:29:18;;;;;;;25.23;16.13;;;;;;;2.83;77.99;96061.41;5091905;28;20200;-63
2021/03/12 07:31:50;;;;;;;30.50;14.60;;;;;;;2.91;77.81;96071.28;5091743;28;20313;-62
2021/03/12 07:34:20;;;;;;;31.83;16.77;;;;;;;3.12;76.58;96065.50;5091943;28;20291;-62
2021/03/12 07:36:48;;;;;;;27.90;15.87;;;;;;;3.32;76.67;96055.56;5091638;28;20717;-60
2021/03/12 07:39:20;;;;;;;18.27;12.43;;;;;;;3.24;73.90;96066.19;5091656;28;20253;-61
2021/03/12 07:41:47;;;;;;;35.63;20.17;;;;;;;3.40;71.89;96065.44;5091822;28;20203;-61
2021/03/12 07:44:16;;;;;;;139.53;59.53;;;;;;;3.41;74.37;96045.66;5091520;28;20219;-62
2021/03/12 07:46:45;;;;;;;37.53;20.23;;;;;;;3.25;72.66;96043.88;5090711;28;20202;-62
2021/03/12 07:49:39;;;;;;;116.40;49.73;;;;;;;3.55;71.81;96035.84;5091556;28;20631;-60
2021/03/12 07:52:06;;;;;;;44.87;22.87;;;;;;;3.56;73.43;96029.69;5091865;28;20769;-63
2021/03/12 07:54:47;;;;;;;164.33;65.60;;;;;;;3.78;73.47;96015.88;5091538;28;20320;-62
2021/03/12 07:57:16;;;;;;;53.73;24.93;;;;;;;3.91;75.75;96022.47;5091416;28;20595;-62
2021/03/12 08:00:03;;;;;;;27.33;15.93;;;;;;;4.14;70.47;96037.66;5091409;28;20195;-62
2021/03/12 08:02:56;;;;;;;29.40;17.07;;;;;;;4.11;73.28;96039.94;5091468;28;20206;-62
2021/03/12 08:05:32;;;;;;;61.57;27.47;;;;;;;4.38;71.93;96048.50;5091415;28;20204;-61
2021/03/12 08:07:59;;;;;;;30.53;18.23;;;;;;;4.29;71.68;96050.72;5091775;28;20195;-61
2021/03/12 08:10:26;;;;;;;29.77;18.10;;;;;;;3.83;72.29;96061.44;5091065;28;20565;-62
2021/03/12 08:12:53;;;;;;;401.47;142.93;;;;;;;4.00;72.41;96046.75;5090956;28;20223;-61
2021/03/12 08:15:22;;;;;;;71.23;29.80;;;;;;;3.93;72.03;96051.31;5090947;28;20223;-62
2021/03/12 08:18:19;;;;;;;527.50;181.97;;;;;;;4.13;73.47;96046.41;5090837;28;20279;-62
2021/03/12 08:20:47;;;;;;;78.93;31.70;;;;;;;4.22;76.08;96031.34;5088488;28;20642;-62
2021/03/12 08:23:15;;;;;;;266.70;80.10;;;;;;;4.09;74.92;96035.03;5091482;28;20203;-60
2021/03/12 08:25:47;;;;;;;342.03;114.87;;;;;;;4.14;75.38;96042.03;5090660;28;20227;-61
2021/03/12 08:28:34;;;;;;;59.07;23.37;;;;;;;4.21;74.71;96040.84;5090884;28;20195;-62
2021/03/12 08:31:04;;;;;;;42.10;20.77;;;;;;;4.26;75.18;96035.75;5090647;28;20227;-63
2021/03/12 08:33:36;;;;;;;24.90;15.70;;;;;;;4.32;74.69;96050.25;5090870;28;20219;-62
2021/03/12 08:36:05;;;;;;;27.50;15.93;;;;;;;4.51;73.96;96057.66;5090690;28;20226;-62
2021/03/12 08:38:45;;;;;;;29.93;16.47;;;;;;;4.28;71.88;96064.56;5090511;28;20195;-62
2021/03/12 08:41:22;;;;;;;26.23;17.30;;;;;;;4.17;72.99;96060.34;5090543;28;20202;-63
2021/03/12 08:43:56;;;;;;;31.57;17.93;;;;;;;4.62;77.18;96036.16;5090582;28;20199;-61
2021/03/12 08:46:29;;;;;;;27.47;17.57;;;;;;;4.60;74.36;96033.81;5090415;28;20208;-61
2021/03/12 08:48:58;;;;;;;67.90;29.33;;;;;;;4.87;70.89;96031.25;5090415;28;20265;-61
2021/03/12 08:51:28;;;;;;;82.20;32.13;;;;;;;5.06;72.63;96029.88;5090524;28;20266;-62
2021/03/12 08:53:57;;;;;;;138.20;42.47;;;;;;;5.09;72.09;96044.06;5090283;28;20200;-61
2021/03/12 08:56:32;;;;;;;109.37;35.60;;;;;;;5.36;74.76;96038.88;5090233;28;20191;-62
2021/03/12 08:59:01;;;;;;;31.00;17.70;;;;;;;5.59;74.28;96044.44;5090143;28;20252;-62
2021/03/12 09:01:30;;;;;;;58.20;24.33;;;;;;;5.42;72.03;96037.91;5090252;28;20188;-61
2021/03/12 09:03:59;;;;;;;54.20;23.30;;;;;;;5.55;73.16;96033.09;5089936;28;20270;-61
2021/03/12 09:06:29;;;;;;;93.87;33.50;;;;;;;5.66;72.93;96033.94;5090595;28;20198;-61
2021/03/12 09:08:56;;;;;;;86.07;30.63;;;;;;;5.99;72.93;96028.47;5090398;28;20195;-61
2021/03/12 09:11:26;;;;;;;92.27;34.77;;;;;;;6.12;68.70;96029.06;5090128;28;20308;-62
2021/03/12 09:13:54;;;;;;;19.27;13.37;;;;;;;5.77;64.98;96022.66;5090092;28;20200;-62
2021/03/12 09:16:23;;;;;;;36.57;17.77;;;;;;;5.62;67.84;96031.09;5090109;28;20196;-62
2021/03/12 09:18:51;;;;;;;25.57;16.20;;;;;;;5.83;67.17;96018.31;5090000;28;20227;-63
2021/03/12 09:21:19;;;;;;;41.17;19.07;;;;;;;6.18;71.56;96004.81;5089943;28;20227;-64
2021/03/12 09:23:52;;;;;;;191.10;64.00;;;;;;;6.14;68.65;95993.44;5089755;28;20257;-60
2021/03/12 09:26:21;;;;;;;33.37;19.60;;;;;;;6.31;68.74;95999.97;5090177;28;20285;-61
2021/03/12 09:28:49;;;;;;;21.07;14.30;;;;;;;6.39;71.73;96001.28;5089868;28;20299;-61
2021/03/12 09:31:17;;;;;;;21.90;15.20;;;;;;;6.79;71.59;95998.78;5089912;28;20584;-61
2021/03/12 09:33:46;;;;;;;22.87;15.50;;;;;;;6.21;68.58;96006.91;5089825;28;20759;-61
2021/03/12 09:36:31;;;;;;;23.63;15.27;;;;;;;5.84;69.10;96010.31;5090221;28;20202;-63
2021/03/12 09:39:07;;;;;;;25.97;15.33;;;;;;;5.95;68.70;96001.63;5089944;28;20207;-61
2021/03/12 09:41:34;;;;;;;23.80;14.63;;;;;;;5.94;70.49;96000.06;5089739;28;20359;-62
2021/03/12 09:44:05;;;;;;;24.33;15.30;;;;;;;5.89;67.50;96002.63;5089781;28;20205;-62
2021/03/12 09:46:34;;;;;;;24.73;14.80;;;;;;;6.03;68.08;96005.53;5089931;28;20222;-62
2021/03/12 09:49:08;;;;;;;25.60;15.07;;;;;;;5.90;70.27;95995.66;5089731;28;20261;-63
2021/03/12 09:51:36;;;;;;;19.47;14.33;;;;;;;5.93;71.82;95995.16;5089685;28;20336;-61
2021/03/12 09:54:05;;;;;;;26.67;16.17;;;;;;;6.10;68.91;95998.34;5090041;28;20203;-61
2021/03/12 09:56:32;;;;;;;115.23;43.93;;;;;;;6.31;68.64;95994.81;5090045;28;20549;-63
2021/03/12 09:59:00;;;;;;;30.27;17.60;;;;;;;6.29;69.06;95996.84;5089486;28;20192;-62
2021/03/12 10:01:26;;;;;;;25.73;15.90;;;;;;;6.31;69.23;95988.88;5089327;28;20278;-62
2021/03/12 10:03:53;;;;;;;25.20;15.47;;;;;;;6.16;68.59;95981.09;5089271;28;20272;-64
2021/03/12 10:06:21;;;;;;;21.73;14.43;;;;;;;6.01;68.68;95964.53;5089330;28;20674;-62
2021/03/12 10:09:09;;;;;;;29.67;17.80;;;;;;;6.44;76.11;95954.81;5089464;28;20198;-61
2021/03/12 10:11:40;;;;;;;64.17;26.43;;;;;;;6.71;74.44;95957.97;5092522;28;20725;-62
2021/03/12 10:14:27;;;;;;;27.27;16.23;;;;;;;6.86;73.28;95952.84;5093505;28;20192;-62
2021/03/12 10:17:11;;;;;;;132.77;50.37;;;;;;;6.91;70.97;95952.84;5093411;28;20206;-62
2021/03/12 10:19:45;;;;;;;38.33;18.80;;;;;;;6.77;69.68;95958.75;5093297;28;20790;-62
2021/03/12 10:22:21;;;;;;;22.00;14.47;;;;;;;6.64;68.15;95951.50;5093321;28;20195;-62
2021/03/12 10:24:55;;;;;;;47.30;21.47;;;;;;;6.69;70.59;95948.94;5093227;28;20210;-63
2021/03/12 10:27:23;;;;;;;71.77;29.30;;;;;;;6.98;71.77;95942.22;5093219;28;20239;-62
2021/03/12 10:29:51;;;;;;;118.20;41.23;;;;;;;6.88;71.10;95947.38;5093322;28;20203;-60
2021/03/12 10:32:18;;;;;;;44.03;21.00;;;;;;;7.19;69.79;95958.50;5092852;28;20679;-62
2021/03/12 10:34:46;;;;;;;34.90;21.23;;;;;;;7.21;70.29;95971.94;5093152;28;20692;-61
2021/03/12 10:37:19;;;;;;;31.90;19.90;;;;;;;7.43;68.77;95964.66;5092970;28;20199;-61
2021/03/12 10:39:48;;;;;;;40.30;22.30;;;;;;;7.45;70.88;95951.50;5092907;28;20727;-62
2021/03/12 10:42:17;;;;;;;25.30;17.20;;;;;;;7.47;70.53;95941.66;5093162;28;20202;-64
2021/03/12 10:44:56;;;;;;;25.70;16.17;;;;;;;7.56;70.91;95933.13;5092523;28;20331;-63
2021/03/12 10:47:24;;;;;;;22.37;15.67;;;;;;;7.53;71.31;95928.44;5093198;28;20719;-61
2021/03/12 10:49:51;;;;;;;33.30;16.80;;;;;;;7.65;73.33;95936.69;5092788;28;20203;-61
2021/03/12 10:52:22;;;;;;;22.63;15.20;;;;;;;7.78;69.71;95928.38;5093055;28;20223;-61
2021/03/12 10:54:50;;;;;;;27.73;15.40;;;;;;;7.84;69.45;95925.78;5092739;28;20227;-62
2021/03/12 10:57:18;;;;;;;22.83;15.50;;;;;;;8.26;69.64;95920.94;5092532;28;20196;-63
2021/03/12 10:59:58;;;;;;;19.97;14.67;;;;;;;8.43;71.24;95913.59;5092643;28;20223;-62
2021/03/12 11:02:35;;;;;;;22.53;15.40;;;;;;;8.81;72.03;95906.09;5092168;28;20307;-62
2021/03/12 11:05:02;;;;;;;24.80;15.40;;;;;;;8.85;71.66;95897.50;5092872;28;20199;-62
2021/03/12 11:07:29;;;;;;;24.00;15.20;;;;;;;8.83;67.75;95893.63;5092395;28;20279;-62
2021/03/12 11:09:56;;;;;;;25.17;15.17;;;;;;;8.84;69.78;95887.41;5092355;28;20192;-62
2021/03/12 11:12:25;;;;;;;22.40;16.70;;;;;;;8.93;70.80;95889.13;5092208;28;20230;-63
2021/03/12 11:14:52;;;;;;;22.60;15.23;;;;;;;9.28;70.48;95885.44;5092266;28;20200;-62
2021/03/12 11:17:19;;;;;;;21.90;15.17;;;;;;;9.21;71.30;95899.78;5092311;28;20227;-61
2021/03/12 11:19:47;;;;;;;20.83;15.07;;;;;;;8.93;68.48;95903.91;5092414;28;20250;-62
2021/03/12 11:22:14;;;;;;;26.70;16.37;;;;;;;9.10;71.37;95890.53;5090743;28;20673;-61
2021/03/12 11:24:41;;;;;;;28.13;16.50;;;;;;;8.94;71.17;95882.91;5092170;28;20269;-62
2021/03/12 11:27:08;;;;;;;35.07;20.30;;;;;;;9.28;70.60;95874.28;5091922;28;20242;-62
2021/03/12 11:29:36;;;;;;;26.60;16.57;;;;;;;9.56;71.36;95875.28;5091852;28;20234;-61